Time;durP1;ratioP1;P1;durP2;ratioP2;P2;SDS_P1;SDS_P2;PMS_P1;PMS_P2;Temp;Humidity;BMP_temperature;BMP_pressure;BME280_temperature;BME280_humidity;BME280_pressure;Samples;Min_cycle;Max_cycle;Signal;HPM_P1;HPM_P2
2023/12/06 00:01:23;;;;;;;156.13;66.80;;;-0.30;85.50;;;;;;5045582;28;20060;-70
2023/12/06 00:03:49;;;;;;;166.97;68.27;;;-0.30;85.50;;;;;;5043472;28;20139;-71
2023/12/06 00:06:15;;;;;;;148.43;66.43;;;-0.30;85.50;;;;;;5045650;28;20048;-71
2023/12/06 00:08:40;;;;;;;146.13;64.47;;;-0.30;85.50;;;;;;5045386;28;20072;-71
2023/12/06 00:11:06;;;;;;;138.17;63.83;;;-0.30;85.50;;;;;;5045572;28;20033;-71
2023/12/06 00:13:32;;;;;;;156.77;65.47;;;-0.30;85.50;;;;;;5046231;28;20045;-72
2023/12/06 00:15:57;;;;;;;136.97;63.70;;;-0.30;85.50;;;;;;5044727;28;20056;-74
2023/12/06 00:18:23;;;;;;;144.53;64.10;;;-0.30;85.50;;;;;;5044276;28;20052;-70
2023/12/06 00:20:48;;;;;;;133.80;62.07;;;-0.30;85.50;;;;;;5044376;28;20053;-71
2023/12/06 00:23:14;;;;;;;128.63;61.30;;;-0.30;85.50;;;;;;5046682;28;20041;-70
2023/12/06 00:25:40;;;;;;;127.00;61.07;;;-0.30;85.50;;;;;;5044733;28;20073;-71
2023/12/06 00:28:06;;;;;;;138.97;64.47;;;-0.30;85.50;;;;;;5044499;28;20052;-71
2023/12/06 00:30:32;;;;;;;130.13;61.53;;;-0.30;85.60;;;;;;5043565;28;20049;-72
2023/12/06 00:32:57;;;;;;;134.77;61.67;;;-0.30;85.50;;;;;;5042902;28;20056;-70
2023/12/06 00:35:23;;;;;;;140.90;65.83;;;-0.30;85.60;;;;;;5033665;28;20374;-71
2023/12/06 00:37:48;;;;;;;132.07;62.43;;;-0.30;85.60;;;;;;5033569;28;20057;-70
2023/12/06 00:40:14;;;;;;;115.10;58.37;;;-0.30;85.60;;;;;;5031708;28;20096;-70
2023/12/06 00:42:40;;;;;;;128.07;60.47;;;-0.30;85.60;;;;;;5032059;28;20053;-73
2023/12/06 00:45:06;;;;;;;127.00;60.03;;;-0.30;85.70;;;;;;5044936;28;20057;-72
2023/12/06 00:47:32;;;;;;;108.87;55.43;;;-0.30;85.70;;;;;;5044199;28;20048;-72
2023/12/06 00:49:57;;;;;;;121.20;59.13;;;-0.30;85.60;;;;;;5045144;28;20441;-73
2023/12/06 00:52:23;;;;;;;129.77;60.87;;;-0.30;85.70;;;;;;5045071;28;20472;-70
2023/12/06 00:54:49;;;;;;;131.80;62.80;;;-0.30;85.70;;;;;;5046692;28;20428;-73
2023/12/06 00:57:15;;;;;;;120.70;59.77;;;-0.20;85.70;;;;;;5048031;28;20056;-72
2023/12/06 00:59:41;;;;;;;124.37;61.03;;;-0.20;85.70;;;;;;5039823;28;20054;-72
2023/12/06 01:02:06;;;;;;;112.43;57.67;;;-0.20;85.80;;;;;;5027913;28;20108;-74
2023/12/06 01:04:39;;;;;;;129.57;61.43;;;-0.20;85.70;;;;;;5036236;28;20088;-73
2023/12/06 01:07:05;;;;;;;133.03;62.43;;;-0.20;85.70;;;;;;5034664;28;20052;-72
2023/12/06 01:09:30;;;;;;;117.60;59.70;;;-0.20;85.90;;;;;;5028796;28;20053;-72
2023/12/06 01:11:58;;;;;;;125.27;59.97;;;-0.20;85.80;;;;;;5028027;28;20132;-71
2023/12/06 01:14:23;;;;;;;113.20;59.47;;;-0.20;85.80;;;;;;5029018;28;20526;-73
2023/12/06 01:16:49;;;;;;;119.43;59.87;;;-0.20;85.90;;;;;;5027744;28;20041;-72
2023/12/06 01:19:16;;;;;;;123.93;61.07;;;-0.10;85.80;;;;;;5028120;28;20052;-72
2023/12/06 01:21:42;;;;;;;115.47;59.43;;;-0.10;85.80;;;;;;5027662;28;20053;-71
2023/12/06 01:24:08;;;;;;;114.03;56.80;;;-0.10;85.90;;;;;;5029054;28;20041;-72
2023/12/06 01:26:34;;;;;;;127.80;61.27;;;-0.10;85.90;;;;;;5026586;28;20061;-71
2023/12/06 01:29:03;;;;;;;115.27;59.80;;;-0.10;85.90;;;;;;5028991;28;20053;-73
2023/12/06 01:31:29;;;;;;;123.90;59.53;;;-0.10;85.90;;;;;;5040128;28;20053;-73
2023/12/06 01:33:55;;;;;;;113.37;58.30;;;-0.10;85.90;;;;;;5053973;28;20056;-72
2023/12/06 01:36:20;;;;;;;108.07;54.90;;;-0.10;85.80;;;;;;5038452;28;20060;-71
2023/12/06 01:38:47;;;;;;;102.03;54.57;;;-0.10;85.80;;;;;;5027990;28;20060;-71
2023/12/06 01:41:12;;;;;;;99.67;53.47;;;-0.10;85.90;;;;;;5034168;28;20045;-71
2023/12/06 01:43:43;;;;;;;97.00;51.70;;;-0.10;85.90;;;;;;5045700;28;20063;-72
2023/12/06 01:46:09;;;;;;;91.63;50.53;;;-0.10;85.90;;;;;;5058678;28;22314;-71
2023/12/06 01:48:36;;;;;;;88.80;51.17;;;-0.10;85.90;;;;;;5042962;28;20194;-71
2023/12/06 01:51:02;;;;;;;88.53;48.33;;;-0.10;86.00;;;;;;5047249;28;20057;-71
2023/12/06 01:53:28;;;;;;;81.50;47.30;;;-0.10;85.90;;;;;;5043152;28;20052;-71
2023/12/06 01:55:54;;;;;;;74.40;45.00;;;-0.10;86.00;;;;;;5033553;28;20067;-71
2023/12/06 01:58:20;;;;;;;76.77;45.37;;;-0.10;86.10;;;;;;5026300;28;20037;-75
2023/12/06 02:00:47;;;;;;;72.80;44.40;;;0.00;86.10;;;;;;5044203;28;20099;-71
2023/12/06 02:03:14;;;;;;;74.50;45.33;;;0.00;86.00;;;;;;5045417;28;20491;-71
2023/12/06 02:05:40;;;;;;;67.10;43.53;;;0.00;86.00;;;;;;5047701;28;20498;-74
2023/12/06 02:08:05;;;;;;;69.37;43.10;;;0.00;86.00;;;;;;5046793;28;20053;-71
2023/12/06 02:10:31;;;;;;;73.57;43.47;;;0.00;86.00;;;;;;5047466;28;20625;-71
2023/12/06 02:12:57;;;;;;;75.10;44.40;;;0.00;86.00;;;;;;5047123;28;20049;-71
2023/12/06 02:15:22;;;;;;;70.43;43.27;;;0.00;86.00;;;;;;5047312;28;20053;-71
2023/12/06 02:17:49;;;;;;;64.73;42.30;;;0.00;86.00;;;;;;5046201;28;20079;-72
2023/12/06 02:20:15;;;;;;;66.70;41.37;;;0.00;86.00;;;;;;5047065;28;20602;-70
2023/12/06 02:22:41;;;;;;;66.83;42.17;;;0.00;85.90;;;;;;5047756;28;20064;-72
2023/12/06 02:25:12;;;;;;;64.87;41.83;;;0.00;85.90;;;;;;5046417;28;20435;-71
2023/12/06 02:27:43;;;;;;;70.38;43.80;;;0.00;85.90;;;;;;5047512;28;20044;-74
2023/12/06 02:30:10;;;;;;;70.65;43.80;;;0.00;85.90;;;;;;5038987;28;20036;-73
2023/12/06 02:32:36;;;;;;;71.33;44.97;;;0.00;86.00;;;;;;5045235;28;20053;-71
2023/12/06 02:35:23;;;;;;;72.33;43.60;;;0.00;86.00;;;;;;5047269;28;20052;-73
2023/12/06 02:37:51;;;;;;;66.70;42.60;;;0.00;86.00;;;;;;5045611;28;20057;-71
2023/12/06 02:40:19;;;;;;;62.33;40.57;;;0.00;85.90;;;;;;5045591;28;20045;-71
2023/12/06 02:42:45;;;;;;;58.43;40.50;;;0.00;85.90;;;;;;5030614;28;20600;-71
2023/12/06 02:45:11;;;;;;;70.17;43.57;;;0.00;85.90;;;;;;5034583;28;20053;-71
2023/12/06 02:47:36;;;;;;;70.07;44.53;;;0.00;86.00;;;;;;5031815;28;20041;-72
2023/12/06 02:50:02;;;;;;;72.73;44.20;;;0.00;86.00;;;;;;5037291;28;20055;-71
2023/12/06 02:52:28;;;;;;;66.07;42.77;;;0.00;86.00;;;;;;5025502;28;20128;-71
2023/12/06 02:54:54;;;;;;;66.23;42.43;;;0.00;86.10;;;;;;5043855;28;20573;-73
2023/12/06 02:57:19;;;;;;;67.30;43.67;;;0.00;86.00;;;;;;5045996;28;20044;-73
2023/12/06 02:59:45;;;;;;;69.40;43.27;;;0.00;86.10;;;;;;5044204;28;20068;-71
2023/12/06 03:02:10;;;;;;;63.77;41.13;;;0.00;86.10;;;;;;5032588;28;20457;-72
2023/12/06 03:04:36;;;;;;;63.20;40.60;;;0.00;86.10;;;;;;5026996;28;20049;-71
2023/12/06 03:07:02;;;;;;;60.10;37.97;;;0.00;86.10;;;;;;5042125;28;20053;-71
2023/12/06 03:09:27;;;;;;;59.57;39.43;;;0.00;86.00;;;;;;5046804;28;20041;-71
2023/12/06 03:11:53;;;;;;;69.37;41.50;;;0.00;86.10;;;;;;5045633;28;20124;-71
2023/12/06 03:14:19;;;;;;;56.43;38.97;;;0.00;86.00;;;;;;5046141;28;20135;-73
2023/12/06 03:16:44;;;;;;;59.37;39.73;;;0.00;86.00;;;;;;5046020;28;20168;-72
2023/12/06 03:19:10;;;;;;;60.90;36.73;;;0.00;86.00;;;;;;5045718;28;20119;-72
2023/12/06 03:21:35;;;;;;;60.50;36.60;;;0.00;86.10;;;;;;5045898;28;20052;-71
2023/12/06 03:24:01;;;;;;;61.33;37.57;;;0.00;86.00;;;;;;5045780;28;20045;-72
2023/12/06 03:26:27;;;;;;;53.07;35.70;;;0.00;86.00;;;;;;5047223;28;20072;-75
2023/12/06 03:28:52;;;;;;;55.43;35.37;;;0.00;86.00;;;;;;5048247;28;20486;-72
2023/12/06 03:31:18;;;;;;;57.60;35.60;;;0.00;86.10;;;;;;5054501;28;20124;-72
2023/12/06 03:33:44;;;;;;;50.97;32.90;;;0.00;86.00;;;;;;5045394;28;20045;-72
2023/12/06 03:36:10;;;;;;;54.67;35.50;;;0.00;86.10;;;;;;5042938;28;20061;-73
2023/12/06 03:38:36;;;;;;;53.43;32.53;;;0.00;86.10;;;;;;5033967;28;20061;-73
2023/12/06 03:41:01;;;;;;;51.37;33.20;;;0.00;86.10;;;;;;5022818;28;20115;-74
2023/12/06 03:43:27;;;;;;;47.77;32.33;;;0.10;86.10;;;;;;5029336;28;20041;-73
2023/12/06 03:45:53;;;;;;;47.73;31.53;;;0.10;86.20;;;;;;5034648;28;20088;-72
2023/12/06 03:48:19;;;;;;;50.60;31.93;;;0.10;86.20;;;;;;5036140;28;20087;-71
2023/12/06 03:50:44;;;;;;;50.83;31.57;;;0.20;86.20;;;;;;5017840;28;20053;-71
2023/12/06 03:53:10;;;;;;;46.30;31.00;;;0.10;86.20;;;;;;5018743;28;20052;-73
2023/12/06 03:55:36;;;;;;;43.93;31.20;;;0.20;86.20;;;;;;5022207;28;20072;-72
2023/12/06 03:58:02;;;;;;;43.53;30.77;;;0.10;86.20;;;;;;5021909;28;20045;-73
2023/12/06 04:00:28;;;;;;;51.20;30.53;;;0.20;86.20;;;;;;5023006;28;20045;-73
2023/12/06 04:02:54;;;;;;;43.60;28.90;;;0.20;86.20;;;;;;5021100;28;20123;-71
2023/12/06 04:05:19;;;;;;;39.73;27.60;;;0.20;86.20;;;;;;5022058;28;20045;-74
2023/12/06 04:07:45;;;;;;;41.90;29.20;;;0.10;86.20;;;;;;5023385;28;20046;-72
2023/12/06 04:10:10;;;;;;;43.10;29.23;;;0.20;86.20;;;;;;5022606;28;20050;-73
2023/12/06 04:12:37;;;;;;;47.60;30.87;;;0.20;86.20;;;;;;5023442;28;20057;-71
2023/12/06 04:15:03;;;;;;;45.97;29.47;;;0.20;86.20;;;;;;5023345;28;20045;-73
2023/12/06 04:17:29;;;;;;;46.60;30.70;;;0.20;86.30;;;;;;5023348;28;20057;-72
2023/12/06 04:19:55;;;;;;;45.73;30.87;;;0.20;86.30;;;;;;5021726;28;20060;-72
2023/12/06 04:22:21;;;;;;;46.07;29.47;;;0.20;86.20;;;;;;5020269;28;20045;-72
2023/12/06 04:24:46;;;;;;;45.57;28.60;;;0.20;86.30;;;;;;5018170;28;20054;-73
2023/12/06 04:27:12;;;;;;;45.00;31.07;;;0.20;86.20;;;;;;5022818;28;20132;-72
2023/12/06 04:29:38;;;;;;;48.73;31.57;;;0.30;86.30;;;;;;5022415;28;20409;-71
2023/12/06 04:32:04;;;;;;;47.63;29.67;;;0.30;86.30;;;;;;5021806;28;20489;-71
2023/12/06 04:34:31;;;;;;;51.23;33.23;;;0.30;86.30;;;;;;5019138;28;20053;-73
2023/12/06 04:36:57;;;;;;;51.57;32.63;;;0.30;86.40;;;;;;5023028;28;20110;-72
2023/12/06 04:39:23;;;;;;;48.70;32.43;;;0.30;86.40;;;;;;5042537;28;20045;-73
2023/12/06 04:41:49;;;;;;;58.17;32.87;;;0.30;86.40;;;;;;5044059;28;20155;-72
2023/12/06 04:44:14;;;;;;;47.53;32.70;;;0.30;86.30;;;;;;5038504;28;20412;-73
2023/12/06 04:46:40;;;;;;;48.63;32.47;;;0.30;86.30;;;;;;5026422;28;20060;-73
2023/12/06 04:49:06;;;;;;;47.67;32.13;;;0.30;86.40;;;;;;5025563;28;20049;-74
2023/12/06 04:51:31;;;;;;;50.63;33.43;;;0.30;86.40;;;;;;5029270;28;20049;-72
2023/12/06 04:53:57;;;;;;;51.00;33.03;;;0.40;86.40;;;;;;5039077;28;20053;-72
2023/12/06 04:56:23;;;;;;;50.20;32.77;;;0.30;86.50;;;;;;5041871;28;20040;-72
2023/12/06 04:58:48;;;;;;;54.77;34.23;;;0.40;86.50;;;;;;5041518;28;20143;-72
2023/12/06 05:01:14;;;;;;;51.40;33.47;;;0.40;86.40;;;;;;5028833;28;20037;-72
2023/12/06 05:03:40;;;;;;;54.67;33.50;;;0.40;86.40;;;;;;5041112;28;20057;-74
2023/12/06 05:06:05;;;;;;;47.50;32.77;;;0.40;86.50;;;;;;5041492;28;20079;-73
2023/12/06 05:08:31;;;;;;;50.73;34.30;;;0.40;86.50;;;;;;5044322;28;20124;-72
2023/12/06 05:10:57;;;;;;;54.83;34.37;;;0.40;86.40;;;;;;5044007;28;20089;-71
2023/12/06 05:13:22;;;;;;;52.03;33.90;;;0.40;86.40;;;;;;5037081;28;20419;-71
2023/12/06 05:15:48;;;;;;;60.90;33.97;;;0.40;86.40;;;;;;5034098;28;20046;-71
2023/12/06 05:18:13;;;;;;;56.13;33.70;;;0.40;86.50;;;;;;5016083;28;20067;-72
2023/12/06 05:20:39;;;;;;;54.77;34.40;;;0.40;86.50;;;;;;5004225;28;20141;-72
2023/12/06 05:23:05;;;;;;;54.17;34.93;;;0.40;86.50;;;;;;5012262;28;20057;-72
2023/12/06 05:25:32;;;;;;;51.70;32.93;;;0.40;86.40;;;;;;5010740;28;20045;-72
2023/12/06 05:27:58;;;;;;;47.53;33.07;;;0.40;86.50;;;;;;5013641;28;20112;-72
2023/12/06 05:30:24;;;;;;;48.93;33.00;;;0.40;86.40;;;;;;5021260;28;20469;-72
2023/12/06 05:32:50;;;;;;;49.83;31.63;;;0.40;86.40;;;;;;5062860;28;20412;-74
2023/12/06 05:35:16;;;;;;;54.57;32.33;;;0.40;86.50;;;;;;5037509;28;20049;-73
2023/12/06 05:37:41;;;;;;;50.00;33.27;;;0.40;86.40;;;;;;5044263;28;20041;-72
2023/12/06 05:40:07;;;;;;;50.17;33.37;;;0.40;86.50;;;;;;5043945;28;20099;-71
2023/12/06 05:42:33;;;;;;;55.43;42.83;;;0.40;86.50;;;;;;5042154;28;20049;-73
2023/12/06 05:44:59;;;;;;;50.23;31.43;;;0.40;86.50;;;;;;5048482;28;20049;-72
2023/12/06 05:47:25;;;;;;;50.93;34.67;;;0.40;86.60;;;;;;5031337;28;20080;-73
2023/12/06 05:49:51;;;;;;;47.87;30.97;;;0.40;86.50;;;;;;5047230;28;20488;-75
2023/12/06 05:52:16;;;;;;;44.77;29.67;;;0.40;86.60;;;;;;5046505;28;20051;-72
2023/12/06 05:54:42;;;;;;;47.13;29.63;;;0.40;86.40;;;;;;5044412;28;20060;-72
2023/12/06 05:57:08;;;;;;;43.47;29.67;;;0.40;86.50;;;;;;5047880;28;20072;-72
2023/12/06 05:59:33;;;;;;;41.00;29.47;;;0.50;86.50;;;;;;5047886;28;20097;-72
2023/12/06 06:01:59;;;;;;;45.43;31.00;;;0.50;86.50;;;;;;5048143;28;20170;-72
2023/12/06 06:04:26;;;;;;;45.53;29.17;;;0.50;86.60;;;;;;5033041;28;20164;-72
2023/12/06 06:06:51;;;;;;;35.00;24.73;;;0.50;86.60;;;;;;5025764;28;20528;-73
2023/12/06 06:09:17;;;;;;;41.20;28.97;;;0.50;86.50;;;;;;5028042;28;20061;-72
2023/12/06 06:11:43;;;;;;;46.53;28.90;;;0.50;86.50;;;;;;5044237;28;20055;-73
2023/12/06 06:14:09;;;;;;;40.53;27.83;;;0.50;86.60;;;;;;5045814;28;20504;-72
2023/12/06 06:16:35;;;;;;;36.60;26.90;;;0.50;86.60;;;;;;5046050;28;20063;-73
2023/12/06 06:19:00;;;;;;;37.03;27.77;;;0.50;86.60;;;;;;5046197;28;20110;-73
2023/12/06 06:21:26;;;;;;;35.00;27.20;;;0.50;86.60;;;;;;5046987;28;20091;-72
2023/12/06 06:23:52;;;;;;;34.33;25.17;;;0.50;86.60;;;;;;5047933;28;20050;-73
2023/12/06 06:26:17;;;;;;;40.57;26.23;;;0.60;86.60;;;;;;5046636;28;20049;-73
2023/12/06 06:28:43;;;;;;;40.00;25.60;;;0.60;86.60;;;;;;5047711;28;20049;-72
2023/12/06 06:31:09;;;;;;;41.00;26.10;;;0.60;86.70;;;;;;5046452;28;20080;-71
2023/12/06 06:33:35;;;;;;;37.37;26.53;;;0.60;86.60;;;;;;5046523;28;20055;-73
2023/12/06 06:36:01;;;;;;;42.20;27.50;;;0.60;86.70;;;;;;5044910;28;20052;-73
2023/12/06 06:38:26;;;;;;;42.33;28.47;;;0.60;86.60;;;;;;5047311;28;20049;-72
2023/12/06 06:40:52;;;;;;;41.77;27.40;;;0.60;86.70;;;;;;5047116;28;20116;-72
2023/12/06 06:43:18;;;;;;;38.27;27.57;;;0.60;86.60;;;;;;5035829;28;20064;-73
2023/12/06 06:45:43;;;;;;;39.20;27.50;;;0.60;86.60;;;;;;5032468;28;20052;-73
2023/12/06 06:48:12;;;;;;;40.60;27.80;;;0.60;86.70;;;;;;5044022;28;20045;-73
2023/12/06 06:50:38;;;;;;;40.60;28.17;;;0.60;86.60;;;;;;5043637;28;20061;-72
2023/12/06 06:53:03;;;;;;;40.37;28.13;;;0.70;86.70;;;;;;5033826;28;20389;-72
2023/12/06 06:55:29;;;;;;;39.93;27.57;;;0.70;86.70;;;;;;5031078;28;20068;-73
2023/12/06 06:57:56;;;;;;;43.27;29.03;;;0.70;86.70;;;;;;5020223;28;20041;-73
2023/12/06 07:00:22;;;;;;;39.37;27.80;;;0.70;86.60;;;;;;5039673;28;20771;-73
2023/12/06 07:02:48;;;;;;;41.13;28.20;;;0.80;86.60;;;;;;5025076;28;20136;-72
2023/12/06 07:05:14;;;;;;;44.33;29.23;;;0.80;86.70;;;;;;5024968;28;20033;-73
2023/12/06 07:07:41;;;;;;;41.03;29.10;;;0.80;86.70;;;;;;5026477;28;20059;-72
2023/12/06 07:10:08;;;;;;;44.00;28.47;;;0.80;86.70;;;;;;5024803;28;20072;-73
2023/12/06 07:12:39;;;;;;;44.13;30.90;;;0.80;86.60;;;;;;5026768;28;20571;-73
2023/12/06 07:15:05;;;;;;;45.70;33.10;;;0.80;86.70;;;;;;5023110;28;20405;-72
2023/12/06 07:17:31;;;;;;;43.33;30.87;;;0.80;86.70;;;;;;5024562;28;20092;-73
2023/12/06 07:19:57;;;;;;;45.97;31.70;;;0.80;86.70;;;;;;5025622;28;20049;-73
2023/12/06 07:22:23;;;;;;;45.57;29.83;;;0.80;86.60;;;;;;5024013;28;20051;-73
2023/12/06 07:24:49;;;;;;;49.07;30.50;;;0.80;86.70;;;;;;5032072;28;20434;-72
2023/12/06 07:27:14;;;;;;;50.63;32.20;;;0.80;86.70;;;;;;5041184;28;20049;-72
2023/12/06 07:29:42;;;;;;;45.50;30.53;;;0.80;86.60;;;;;;5036442;28;20179;-72
2023/12/06 07:32:08;;;;;;;40.83;29.43;;;0.80;86.70;;;;;;5036071;28;20081;-72
2023/12/06 07:34:34;;;;;;;38.30;28.90;;;0.80;86.60;;;;;;5034873;28;20053;-72
2023/12/06 07:37:00;;;;;;;44.20;27.50;;;0.80;86.60;;;;;;5027180;28;20072;-72
2023/12/06 07:39:26;;;;;;;39.20;27.37;;;0.80;86.50;;;;;;5024711;28;20049;-73
2023/12/06 07:41:51;;;;;;;43.73;26.80;;;0.80;86.70;;;;;;5024664;28;20093;-73
2023/12/06 07:44:18;;;;;;;35.60;27.30;;;0.80;86.60;;;;;;5025409;28;20038;-72
2023/12/06 07:46:44;;;;;;;45.30;40.37;;;0.80;86.60;;;;;;5025392;28;20051;-75
2023/12/06 07:49:09;;;;;;;41.47;26.90;;;0.80;86.60;;;;;;5041027;28;20563;-72
2023/12/06 07:51:38;;;;;;;37.17;26.43;;;0.80;86.60;;;;;;5043183;28;20056;-73
2023/12/06 07:54:04;;;;;;;36.90;26.77;;;0.80;86.70;;;;;;5044269;28;20041;-72
2023/12/06 07:56:30;;;;;;;38.50;26.13;;;0.80;86.70;;;;;;5043964;28;20052;-72
2023/12/06 07:58:57;;;;;;;36.40;26.57;;;0.90;86.70;;;;;;5044123;28;20060;-73
2023/12/06 08:01:31;;;;;;;42.43;26.93;;;0.90;86.60;;;;;;5038736;28;20099;-73
2023/12/06 08:04:00;;;;;;;41.63;26.63;;;0.90;86.60;;;;;;5039563;28;20059;-72
2023/12/06 08:06:27;;;;;;;36.07;25.87;;;1.00;86.60;;;;;;5041871;28;20045;-73
2023/12/06 08:08:54;;;;;;;40.97;26.63;;;1.00;86.60;;;;;;5043807;28;20824;-72
2023/12/06 08:11:20;;;;;;;40.70;27.17;;;1.00;86.60;;;;;;5013953;28;20124;-73
2023/12/06 08:13:47;;;;;;;38.77;29.90;;;1.00;86.60;;;;;;5042323;28;20072;-76
2023/12/06 08:16:13;;;;;;;42.53;28.03;;;1.00;86.60;;;;;;5035453;28;20060;-73
2023/12/06 08:18:38;;;;;;;35.97;26.87;;;1.00;86.60;;;;;;5041271;28;20033;-74
2023/12/06 08:21:08;;;;;;;43.30;28.47;;;1.00;86.60;;;;;;5039906;28;20075;-74
2023/12/06 08:23:34;;;;;;;37.43;27.43;;;1.00;86.60;;;;;;5041667;28;20068;-75
2023/12/06 08:26:00;;;;;;;38.70;27.70;;;1.10;86.60;;;;;;5032556;28;20060;-76
2023/12/06 08:28:26;;;;;;;34.77;26.83;;;1.10;86.70;;;;;;5015554;28;20048;-74
2023/12/06 08:30:51;;;;;;;37.83;26.00;;;1.10;86.60;;;;;;5021783;28;20053;-76
2023/12/06 08:33:19;;;;;;;34.03;25.20;;;1.20;86.60;;;;;;5014485;28;20552;-76
2023/12/06 08:35:45;;;;;;;33.10;24.90;;;1.20;86.70;;;;;;5006847;28;20427;-74
2023/12/06 08:38:11;;;;;;;33.97;23.87;;;1.20;86.60;;;;;;5008009;28;20057;-74
2023/12/06 08:40:37;;;;;;;32.63;21.67;;;1.20;86.50;;;;;;4989349;28;20077;-75
2023/12/06 08:43:03;;;;;;;31.60;20.87;;;1.20;86.60;;;;;;5018018;28;20056;-73
2023/12/06 08:45:28;;;;;;;29.77;21.03;;;1.20;86.50;;;;;;5001046;28;20433;-76
2023/12/06 08:47:54;;;;;;;28.70;20.73;;;1.20;86.50;;;;;;5004603;28;20132;-74
2023/12/06 08:50:20;;;;;;;25.83;19.90;;;1.20;86.50;;;;;;5001618;28;20052;-73
2023/12/06 08:52:45;;;;;;;31.83;18.83;;;1.20;86.50;;;;;;5004657;28;20045;-73
2023/12/06 08:55:12;;;;;;;28.27;19.20;;;1.20;86.50;;;;;;5004125;28;20057;-74
2023/12/06 08:57:37;;;;;;;27.40;19.63;;;1.20;86.40;;;;;;5004471;28;20046;-76
2023/12/06 09:00:07;;;;;;;32.30;19.13;;;1.20;86.40;;;;;;5006083;28;20057;-77
2023/12/06 09:02:34;;;;;;;22.53;17.70;;;1.20;86.40;;;;;;5003012;28;20495;-74
2023/12/06 09:05:00;;;;;;;25.70;19.57;;;1.20;86.40;;;;;;5006423;28;20063;-75
2023/12/06 09:07:26;;;;;;;31.23;19.53;;;1.20;86.40;;;;;;5000979;28;20571;-75
2023/12/06 09:09:51;;;;;;;34.87;20.50;;;1.20;86.60;;;;;;5005721;28;20546;-76
2023/12/06 09:12:17;;;;;;;29.53;20.73;;;1.30;86.60;;;;;;5003377;28;20084;-73
2023/12/06 09:14:43;;;;;;;28.60;22.97;;;1.40;86.60;;;;;;5004623;28;20052;-74
2023/12/06 09:17:09;;;;;;;31.27;22.27;;;1.40;86.60;;;;;;5022776;28;20634;-74
2023/12/06 09:19:34;;;;;;;29.53;21.27;;;1.40;86.60;;;;;;5032019;28;20060;-74
2023/12/06 09:22:00;;;;;;;28.20;21.40;;;1.40;86.60;;;;;;5027813;28;20083;-73
2023/12/06 09:24:26;;;;;;;27.00;20.00;;;1.40;86.60;;;;;;5019362;28;20152;-74
2023/12/06 09:26:51;;;;;;;30.33;20.83;;;1.40;86.60;;;;;;5007605;28;20585;-74
2023/12/06 09:29:17;;;;;;;32.33;21.67;;;1.40;86.60;;;;;;5000718;28;20969;-75
2023/12/06 09:31:43;;;;;;;30.73;20.67;;;1.40;86.60;;;;;;5018875;28;20135;-73
2023/12/06 09:34:09;;;;;;;28.33;20.07;;;1.40;86.60;;;;;;4996612;28;20140;-73
2023/12/06 09:36:35;;;;;;;29.07;20.47;;;1.40;86.70;;;;;;5010734;28;20191;-75
2023/12/06 09:39:01;;;;;;;30.40;21.37;;;1.50;86.70;;;;;;5016941;28;20168;-73
2023/12/06 09:41:29;;;;;;;35.37;25.63;;;1.50;86.70;;;;;;4998834;28;20048;-74
2023/12/06 09:43:55;;;;;;;29.40;21.67;;;1.50;86.70;;;;;;4993629;28;20560;-73
2023/12/06 09:46:21;;;;;;;28.80;20.00;;;1.60;86.70;;;;;;5005730;28;20053;-75
2023/12/06 09:48:47;;;;;;;27.77;19.50;;;1.60;86.70;;;;;;5007513;28;20049;-74
2023/12/06 09:51:17;;;;;;;27.40;19.30;;;1.60;86.70;;;;;;5007615;28;20049;-74
2023/12/06 09:53:44;;;;;;;28.57;19.77;;;1.60;86.70;;;;;;5009893;28;20102;-74
2023/12/06 09:56:10;;;;;;;28.83;18.73;;;1.60;86.70;;;;;;5009080;28;20431;-74
2023/12/06 09:58:36;;;;;;;27.20;18.53;;;1.60;86.70;;;;;;5010281;28;20056;-73
2023/12/06 10:01:02;;;;;;;24.80;16.73;;;1.60;86.70;;;;;;5012188;28;20050;-73
2023/12/06 10:03:28;;;;;;;23.67;15.63;;;1.60;86.60;;;;;;5007729;28;20056;-75
2023/12/06 10:05:58;;;;;;;22.80;15.93;;;1.60;86.60;;;;;;5006689;28;20050;-75
2023/12/06 10:08:25;;;;;;;19.53;15.57;;;1.60;86.60;;;;;;5006252;28;20660;-73
2023/12/06 10:11:05;;;;;;;23.07;16.60;;;1.60;86.60;;;;;;5007097;28;20092;-74
2023/12/06 10:13:39;;;;;;;23.38;16.15;;;1.60;86.60;;;;;;5007719;28;20666;-75
2023/12/06 10:16:15;;;;;;;21.60;14.97;;;1.70;86.70;;;;;;5012424;28;20496;-73
2023/12/06 10:18:41;;;;;;;22.17;16.73;;;1.70;86.60;;;;;;4986323;28;20061;-73
2023/12/06 10:21:07;;;;;;;24.33;17.10;;;1.70;86.60;;;;;;5005107;28;20509;-72
2023/12/06 10:23:33;;;;;;;28.23;18.27;;;1.70;86.60;;;;;;5009987;28;20057;-75
2023/12/06 10:25:58;;;;;;;24.90;18.47;;;1.70;86.60;;;;;;5006025;28;21118;-75
2023/12/06 10:28:24;;;;;;;28.20;24.17;;;1.70;86.50;;;;;;5006531;28;20058;-74
2023/12/06 10:31:03;;;;;;;32.87;19.53;;;1.70;86.60;;;;;;5006601;28;20145;-72
2023/12/06 10:33:30;;;;;;;24.20;17.83;;;1.80;86.60;;;;;;5009430;28;20516;-75
2023/12/06 10:36:01;;;;;;;24.87;18.43;;;1.80;86.50;;;;;;5008730;28;20130;-73
2023/12/06 10:38:30;;;;;;;29.63;19.63;;;1.80;86.60;;;;;;5010667;28;20207;-75
2023/12/06 10:40:58;;;;;;;26.17;18.20;;;1.80;86.50;;;;;;5008084;28;20053;-74
2023/12/06 10:43:26;;;;;;;29.23;20.53;;;1.90;86.60;;;;;;5009755;28;20068;-75
2023/12/06 10:45:53;;;;;;;28.10;19.43;;;1.90;86.60;;;;;;5006988;28;20052;-73
2023/12/06 10:48:20;;;;;;;24.60;19.77;;;1.90;86.60;;;;;;5010244;28;20046;-75
2023/12/06 10:50:45;;;;;;;27.27;19.37;;;1.90;86.60;;;;;;5009821;28;20587;-72
2023/12/06 10:53:16;;;;;;;23.50;17.67;;;1.90;86.60;;;;;;4987922;28;20418;-74
2023/12/06 10:55:42;;;;;;;23.20;17.63;;;1.90;86.60;;;;;;5010620;28;20045;-72
2023/12/06 10:58:08;;;;;;;28.20;19.03;;;2.00;86.60;;;;;;5014640;28;20172;-74
2023/12/06 11:00:34;;;;;;;24.17;18.50;;;2.00;86.50;;;;;;5007200;28;20061;-75
2023/12/06 11:03:01;;;;;;;25.20;19.17;;;2.00;86.50;;;;;;5008206;28;20103;-75
2023/12/06 11:05:33;;;;;;;24.93;18.00;;;2.00;86.50;;;;;;5007161;28;20076;-72
2023/12/06 11:08:22;;;;;;;25.00;17.37;;;2.00;86.40;;;;;;5009020;28;20420;-72
2023/12/06 11:11:26;;;;;;;26.40;18.10;;;2.10;86.50;;;;;;5007535;28;20385;-72
2023/12/06 11:14:02;;;;;;;23.57;18.03;;;2.10;86.40;;;;;;5015254;28;20095;-72
2023/12/06 11:16:51;;;;;;;24.10;17.20;;;2.10;86.30;;;;;;5012850;28;20053;-73
2023/12/06 11:19:18;;;;;;;23.33;17.20;;;2.10;86.40;;;;;;5006893;28;20065;-73
2023/12/06 11:21:44;;;;;;;23.77;17.70;;;2.20;86.30;;;;;;5006061;28;20211;-73
2023/12/06 11:24:11;;;;;;;23.87;17.60;;;2.30;86.30;;;;;;5006176;28;20045;-73
2023/12/06 11:26:36;;;;;;;25.57;17.70;;;2.20;86.30;;;;;;5005213;28;20053;-72
2023/12/06 11:29:03;;;;;;;27.37;18.37;;;2.30;86.30;;;;;;5008223;28;20054;-72
2023/12/06 11:31:37;;;;;;;23.00;16.43;;;2.30;86.20;;;;;;5016291;28;20184;-72
2023/12/06 11:34:11;;;;;;;25.80;16.80;;;2.30;86.20;;;;;;4991278;28;20102;-73
2023/12/06 11:36:37;;;;;;;27.67;16.27;;;2.30;86.30;;;;;;5008799;28;20136;-74
2023/12/06 11:39:16;;;;;;;23.43;16.27;;;2.30;86.20;;;;;;5001073;28;20145;-72
2023/12/06 11:42:00;;;;;;;20.57;15.80;;;2.40;86.20;;;;;;5003674;28;20060;-72
2023/12/06 11:44:26;;;;;;;18.77;14.80;;;2.40;86.30;;;;;;5002988;28;20045;-74
2023/12/06 11:46:55;;;;;;;29.67;27.23;;;2.30;86.10;;;;;;5002536;28;20138;-72
2023/12/06 11:49:25;;;;;;;19.33;14.70;;;2.40;86.10;;;;;;5002497;28;20184;-73
2023/12/06 11:52:01;;;;;;;22.80;15.03;;;2.40;86.20;;;;;;5003481;28;20083;-72
2023/12/06 11:54:27;;;;;;;20.67;14.40;;;2.40;86.10;;;;;;5003163;28;20049;-73
2023/12/06 11:57:05;;;;;;;24.10;14.90;;;2.40;86.10;;;;;;5001845;28;21658;-71
2023/12/06 11:59:33;;;;;;;20.50;13.20;;;2.40;86.10;;;;;;5004265;28;20057;-73
2023/12/06 12:01:59;;;;;;;22.97;13.70;;;2.40;86.00;;;;;;5002788;28;20049;-71
2023/12/06 12:04:25;;;;;;;20.30;13.90;;;2.40;86.00;;;;;;5002300;28;20160;-73
2023/12/06 12:06:52;;;;;;;20.63;13.53;;;2.40;86.10;;;;;;5002938;28;20911;-74
2023/12/06 12:09:21;;;;;;;22.03;13.80;;;2.50;86.00;;;;;;5006437;28;20069;-72
2023/12/06 12:11:47;;;;;;;21.53;13.80;;;2.50;86.10;;;;;;5003117;28;20830;-72
2023/12/06 12:14:12;;;;;;;19.80;13.60;;;2.50;86.10;;;;;;5003431;28;20072;-71
2023/12/06 12:16:39;;;;;;;21.20;14.57;;;2.50;86.10;;;;;;5004514;28;20528;-71
2023/12/06 12:19:06;;;;;;;20.30;14.00;;;2.50;86.10;;;;;;5006176;28;20054;-75
2023/12/06 12:21:32;;;;;;;21.53;13.17;;;2.50;86.10;;;;;;5005322;28;20508;-74
2023/12/06 12:24:00;;;;;;;20.57;11.33;;;2.50;86.10;;;;;;5008970;28;20045;-72
2023/12/06 12:26:26;;;;;;;18.57;10.93;;;2.50;86.10;;;;;;5004677;28;20484;-73
2023/12/06 12:28:52;;;;;;;16.37;10.93;;;2.50;86.00;;;;;;5006361;28;20060;-74
2023/12/06 12:31:23;;;;;;;13.63;10.70;;;2.40;86.00;;;;;;5004836;28;20085;-72